Time;durP1;ratioP1;P1;durP2;ratioP2;P2;SDS_P1;SDS_P2;PMS_P1;PMS_P2;Temp;Humidity;BMP_temperature;BMP_pressure;BME280_temperature;BME280_humidity;BME280_pressure;Samples;Min_cycle;Max_cycle;Signal;HPM_P1;HPM_P2
2021/09/21 00:03:42;;;;;;;0.43;0.30;;;;;;;;;;21090201;28;20052;-69
2021/09/21 00:13:45;;;;;;;1.70;0.30;;;;;;;;;;21089940;28;20575;-53
2021/09/21 00:23:47;;;;;;;0.73;0.30;;;;;;;;;;21087852;28;20094;-62
2021/09/21 00:44:09;;;;;;;0.30;0.30;;;;;;;;;;21098016;28;20047;-57
2021/09/21 00:54:11;;;;;;;0.47;0.35;;;;;;;;;;21086426;28;20404;-54
2021/09/21 01:04:13;;;;;;;0.65;0.40;;;;;;;;;;21086805;28;20052;-53
2021/09/21 01:14:15;;;;;;;0.63;0.40;;;;;;;;;;21088480;28;20431;-58
2021/09/21 01:24:18;;;;;;;0.45;0.40;;;;;;;;;;21086863;28;20040;-52
2021/09/21 01:34:20;;;;;;;1.08;0.40;;;;;;;;;;21082915;28;20052;-65
2021/09/21 01:44:25;;;;;;;0.35;0.30;;;;;;;;;;21082517;28;20080;-64
2021/09/21 02:04:47;;;;;;;0.50;0.30;;;;;;;;;;21079940;28;20091;-52
2021/09/21 02:15:00;;;;;;;0.68;0.40;;;;;;;;;;21080034;28;20059;-53
2021/09/21 02:25:05;;;;;;;1.00;0.60;;;;;;;;;;21080059;28;20428;-68
2021/09/21 02:35:09;;;;;;;1.67;0.40;;;;;;;;;;21080687;28;20087;-53
2021/09/21 02:45:12;;;;;;;1.10;0.68;;;;;;;;;;21090305;28;20476;-53
2021/09/21 02:55:16;;;;;;;1.95;0.80;;;;;;;;;;21095014;28;20172;-69
2021/09/21 03:05:28;;;;;;;0.93;0.60;;;;;;;;;;21094562;28;20241;-53
2021/09/21 03:25:50;;;;;;;0.77;0.50;;;;;;;;;;21093028;28;20446;-52
2021/09/21 03:35:52;;;;;;;4.40;0.73;;;;;;;;;;21091759;28;20048;-52
2021/09/21 03:45:54;;;;;;;1.95;0.60;;;;;;;;;;21092365;28;20472;-53
2021/09/21 03:55:56;;;;;;;1.75;0.80;;;;;;;;;;21090120;28;20056;-53
2021/09/21 04:05:58;;;;;;;2.97;0.70;;;;;;;;;;21090158;28;20101;-63
2021/09/21 04:16:02;;;;;;;1.38;0.60;;;;;;;;;;21089178;28;20475;-52
2021/09/21 04:26:03;;;;;;;1.42;0.80;;;;;;;;;;21088234;28;20055;-53
2021/09/21 04:36:08;;;;;;;1.33;0.90;;;;;;;;;;21086980;28;20052;-53
2021/09/21 04:46:11;;;;;;;2.23;0.80;;;;;;;;;;21086419;28;20119;-53
2021/09/21 04:56:15;;;;;;;2.07;0.73;;;;;;;;;;21085545;28;20056;-53
2021/09/21 05:06:18;;;;;;;1.38;1.05;;;;;;;;;;21084465;28;20052;-52
2021/09/21 05:16:20;;;;;;;2.03;0.95;;;;;;;;;;21083688;28;20048;-52
2021/09/21 05:26:23;;;;;;;1.77;0.80;;;;;;;;;;21082996;28;20172;-52
2021/09/21 05:36:25;;;;;;;1.63;0.88;;;;;;;;;;21083325;28;20102;-68
2021/09/21 05:46:28;;;;;;;1.40;0.70;;;;;;;;;;21082194;28;20053;-64
2021/09/21 05:56:30;;;;;;;1.00;0.60;;;;;;;;;;21081833;28;20101;-68
2021/09/21 06:06:32;;;;;;;3.40;0.80;;;;;;;;;;21081524;28;20453;-52
2021/09/21 06:16:36;;;;;;;1.13;0.70;;;;;;;;;;21079082;28;20528;-58
2021/09/21 06:26:39;;;;;;;2.78;0.90;;;;;;;;;;21078770;28;20044;-65
2021/09/21 06:36:41;;;;;;;2.88;0.70;;;;;;;;;;21078598;28;20048;-56
2021/09/21 06:46:45;;;;;;;3.20;0.93;;;;;;;;;;21077991;28;20044;-53
2021/09/21 06:56:47;;;;;;;5.75;0.85;;;;;;;;;;21077830;28;20132;-67
2021/09/21 07:06:49;;;;;;;2.15;1.15;;;;;;;;;;21077348;28;20043;-69
2021/09/21 07:16:51;;;;;;;3.45;0.82;;;;;;;;;;21079158;28;20174;-56
2021/09/21 07:26:54;;;;;;;2.55;0.77;;;;;;;;;;21081965;28;20055;-53
2021/09/21 07:36:57;;;;;;;1.60;0.85;;;;;;;;;;21092173;28;20052;-55
2021/09/21 07:46:59;;;;;;;1.60;1.10;;;;;;;;;;21091487;28;20519;-68
2021/09/21 07:57:02;;;;;;;2.83;1.70;;;;;;;;;;21090911;28;20047;-66
2021/09/21 08:07:05;;;;;;;1.45;0.75;;;;;;;;;;21090254;28;20149;-67
2021/09/21 08:17:09;;;;;;;2.00;0.75;;;;;;;;;;21089430;28;20459;-68
2021/09/21 08:27:12;;;;;;;2.17;0.80;;;;;;;;;;21088860;28;20381;-65
2021/09/21 08:37:16;;;;;;;1.20;0.60;;;;;;;;;;21087847;28;20389;-68
2021/09/21 08:47:20;;;;;;;1.00;0.50;;;;;;;;;;21086407;28;20052;-68
2021/09/21 08:57:25;;;;;;;;;;;;;;;;;;21086025;28;20052;-62
2021/09/21 09:07:27;;;;;;;1.52;0.55;;;;;;;;;;21128483;28;20379;-68
2021/09/21 09:17:30;;;;;;;1.02;0.60;;;;;;;;;;21167488;28;20044;-50
2021/09/21 09:27:49;;;;;;;1.75;0.70;;;;;;;;;;21166305;28;20434;-51
2021/09/21 09:37:51;;;;;;;4.47;1.45;;;;;;;;;;21165140;28;20051;-53
2021/09/21 09:47:53;;;;;;;0.82;0.63;;;;;;;;;;21164817;28;20459;-53
2021/09/21 09:57:55;;;;;;;3.08;0.55;;;;;;;;;;21164256;28;20047;-52
2021/09/21 10:08:00;;;;;;;1.27;0.60;;;;;;;;;;21154592;28;20047;-53
2021/09/21 10:18:02;;;;;;;1.60;0.70;;;;;;;;;;21135131;28;20455;-49
2021/09/21 10:28:19;;;;;;;2.38;0.70;;;;;;;;;;21126885;28;20054;-54
2021/09/21 10:38:22;;;;;;;2.03;0.80;;;;;;;;;;21101202;28;20048;-51
2021/09/21 10:48:23;;;;;;;2.00;0.80;;;;;;;;;;21076893;28;20048;-51
2021/09/21 10:58:26;;;;;;;3.85;0.90;;;;;;;;;;21077166;28;20510;-51
2021/09/21 11:08:35;;;;;;;5.00;0.80;;;;;;;;;;21091446;28;20474;-53
2021/09/21 11:18:36;;;;;;;2.97;0.80;;;;;;;;;;21152746;27;20051;-52
2021/09/21 11:28:43;;;;;;;1.23;0.70;;;;;;;;;;21157942;28;20491;-54
2021/09/21 11:38:49;;;;;;;1.75;0.55;;;;;;;;;;21174835;28;20105;-51
2021/09/21 11:48:55;;;;;;;3.28;0.80;;;;;;;;;;21167120;27;20087;-55
2021/09/21 11:59:00;;;;;;;3.50;0.70;;;;;;;;;;21172515;28;20051;-54
2021/09/21 12:09:03;;;;;;;2.33;0.70;;;;;;;;;;21173319;28;20051;-56
2021/09/21 12:19:16;;;;;;;0.65;0.43;;;;;;;;;;21171464;28;20047;-56
2021/09/21 12:29:19;;;;;;;3.83;1.02;;;;;;;;;;21171825;28;20132;-54
2021/09/21 12:39:23;;;;;;;1.80;0.70;;;;;;;;;;21160863;28;20047;-56
2021/09/21 12:49:31;;;;;;;2.95;0.75;;;;;;;;;;21085798;28;20162;-54
2021/09/21 12:59:34;;;;;;;1.35;0.70;;;;;;;;;;21085530;28;20048;-54
2021/09/21 13:09:37;;;;;;;3.53;0.60;;;;;;;;;;21084524;28;20105;-54
2021/09/21 13:19:40;;;;;;;2.90;0.60;;;;;;;;;;21083329;28;20044;-58
2021/09/21 13:29:42;;;;;;;3.88;0.90;;;;;;;;;;21081982;28;20308;-54
2021/09/21 13:39:45;;;;;;;4.63;0.80;;;;;;;;;;21081705;28;20048;-55
2021/09/21 13:49:50;;;;;;;1.80;0.73;;;;;;;;;;21082326;28;20044;-55
2021/09/21 13:59:52;;;;;;;1.20;0.60;;;;;;;;;;21080909;28;20482;-54
2021/09/21 14:09:54;;;;;;;4.55;1.00;;;;;;;;;;21061842;28;20182;-62
2021/09/21 14:19:56;;;;;;;2.85;0.73;;;;;;;;;;21078814;28;20407;-60
2021/09/21 14:29:58;;;;;;;2.00;0.70;;;;;;;;;;21059440;28;20087;-62
2021/09/21 14:40:00;;;;;;;1.73;0.73;;;;;;;;;;21076740;28;20479;-62
2021/09/21 14:50:03;;;;;;;2.40;0.60;;;;;;;;;;21077263;28;20087;-64
2021/09/21 15:00:10;;;;;;;2.72;0.60;;;;;;;;;;21076963;28;20048;-61
2021/09/21 15:10:12;;;;;;;2.13;0.50;;;;;;;;;;21076584;28;20121;-60
2021/09/21 15:20:14;;;;;;;1.42;0.50;;;;;;;;;;21077038;28;20510;-60
2021/09/21 15:30:17;;;;;;;1.45;0.70;;;;;;;;;;21075690;28;20048;-65
2021/09/21 15:40:23;;;;;;;2.45;0.60;;;;;;;;;;21076151;28;20123;-63
2021/09/21 15:50:26;;;;;;;0.85;0.55;;;;;;;;;;21084311;28;20488;-66
2021/09/21 16:00:30;;;;;;;3.67;0.53;;;;;;;;;;21090723;28;20090;-62
2021/09/21 16:10:38;;;;;;;1.17;0.57;;;;;;;;;;21089110;28;20052;-59
2021/09/21 16:20:41;;;;;;;2.83;0.70;;;;;;;;;;21088483;28;20531;-57
2021/09/21 16:30:44;;;;;;;1.35;0.57;;;;;;;;;;21087502;28;20078;-53
2021/09/21 16:40:48;;;;;;;2.17;1.00;;;;;;;;;;21086979;28;20047;-55
2021/09/21 16:50:52;;;;;;;2.00;0.57;;;;;;;;;;21085635;28;20547;-53
2021/09/21 17:00:55;;;;;;;;;;;;;;;;;;21084129;28;20055;-53
2021/09/21 17:10:58;;;;;;;2.13;0.52;;;;;;;;;;21084313;28;20325;-54
2021/09/21 17:21:00;;;;;;;;;;;;;;;;;;21084124;28;20040;-53
2021/09/21 17:31:03;;;;;;;1.65;0.50;;;;;;;;;;21081991;28;19926;-52
2021/09/21 17:41:05;;;;;;;2.22;0.98;;;;;;;;;;21081243;28;20143;-56
2021/09/21 17:51:07;;;;;;;2.30;0.80;;;;;;;;;;21081811;28;20483;-54
2021/09/21 18:01:09;;;;;;;0.83;0.50;;;;;;;;;;21081164;28;20090;-54
2021/09/21 18:11:16;;;;;;;1.38;0.70;;;;;;;;;;21079764;28;20381;-54
2021/09/21 18:21:27;;;;;;;1.45;0.70;;;;;;;;;;21078857;28;20044;-54
2021/09/21 18:31:29;;;;;;;1.35;0.50;;;;;;;;;;21079285;28;20060;-53
2021/09/21 18:41:31;;;;;;;2.15;0.80;;;;;;;;;;21079087;28;20046;-54
2021/09/21 18:51:33;;;;;;;2.10;0.90;;;;;;;;;;21078610;28;20051;-54
2021/09/21 19:01:35;;;;;;;2.33;0.90;;;;;;;;;;21078052;28;20507;-55
2021/09/21 19:11:38;;;;;;;2.15;0.70;;;;;;;;;;21078370;28;20105;-54
2021/09/21 19:21:40;;;;;;;1.30;0.63;;;;;;;;;;21079716;28;20044;-53
2021/09/21 19:31:42;;;;;;;1.60;0.70;;;;;;;;;;21092514;28;20062;-52
2021/09/21 19:41:47;;;;;;;2.97;1.08;;;;;;;;;;21093427;28;20044;-54
2021/09/21 19:51:49;;;;;;;3.40;1.00;;;;;;;;;;21072631;28;20051;-55
2021/09/21 20:01:51;;;;;;;3.60;0.95;;;;;;;;;;21089695;28;20514;-57
2021/09/21 20:11:53;;;;;;;2.00;0.93;;;;;;;;;;21089412;28;20055;-62
2021/09/21 20:21:55;;;;;;;2.95;1.10;;;;;;;;;;21089062;28;20446;-53
2021/09/21 20:31:57;;;;;;;4.28;0.90;;;;;;;;;;21087866;28;20450;-54
2021/09/21 20:41:58;;;;;;;5.80;1.30;;;;;;;;;;21085135;28;20044;-54
2021/09/21 20:52:01;;;;;;;2.13;0.80;;;;;;;;;;21086290;28;20537;-54
2021/09/21 21:02:03;;;;;;;2.20;0.77;;;;;;;;;;21084910;28;20097;-59
2021/09/21 21:12:05;;;;;;;3.03;0.80;;;;;;;;;;21084242;28;20094;-54
2021/09/21 21:22:08;;;;;;;2.40;0.90;;;;;;;;;;21083579;28;20048;-55
2021/09/21 21:32:10;;;;;;;2.85;0.73;;;;;;;;;;21082848;28;20052;-55
2021/09/21 21:42:12;;;;;;;1.90;0.90;;;;;;;;;;21081704;28;20055;-53
2021/09/21 21:52:13;;;;;;;2.47;0.65;;;;;;;;;;21081033;28;20048;-54
2021/09/21 22:02:16;;;;;;;2.58;1.00;;;;;;;;;;21080898;28;20056;-54
2021/09/21 22:12:18;;;;;;;2.75;0.90;;;;;;;;;;21080369;28;20052;-53
2021/09/21 22:22:20;;;;;;;1.55;0.90;;;;;;;;;;21079974;28;20048;-54
2021/09/21 22:32:22;;;;;;;2.85;0.82;;;;;;;;;;21079384;28;20056;-59
2021/09/21 22:42:24;;;;;;;2.28;0.82;;;;;;;;;;21079588;28;20043;-54
2021/09/21 22:52:25;;;;;;;2.60;0.80;;;;;;;;;;21077960;28;20048;-54
2021/09/21 23:02:29;;;;;;;2.67;1.42;;;;;;;;;;21089375;28;20100;-54
2021/09/21 23:12:31;;;;;;;2.78;0.73;;;;;;;;;;21094087;28;20059;-56
2021/09/21 23:22:33;;;;;;;3.10;0.80;;;;;;;;;;21094604;28;20403;-55
2021/09/21 23:32:37;;;;;;;2.55;0.80;;;;;;;;;;21093671;28;20047;-56
2021/09/21 23:42:39;;;;;;;1.83;0.67;;;;;;;;;;21092526;28;20494;-54
2021/09/21 23:52:41;;;;;;;2.38;1.05;;;;;;;;;;21087670;28;20403;-54
